createdAt,value
2018-07-19T00:02:24.775Z,47.10
2018-07-19T00:04:53.406Z,46.70
2018-07-19T00:07:21.992Z,46.40
2018-07-19T00:09:50.572Z,46.40
2018-07-19T00:12:19.134Z,47.00
2018-07-19T00:14:47.799Z,46.90
2018-07-19T00:17:16.386Z,46.80
2018-07-19T00:19:44.985Z,46.50
2018-07-19T00:22:13.682Z,46.90
2018-07-19T00:24:42.346Z,46.70
2018-07-19T00:27:10.987Z,47.10
2018-07-19T00:29:39.614Z,47.20
2018-07-19T00:32:08.274Z,47.20
2018-07-19T00:34:36.907Z,47.60
2018-07-19T00:37:05.488Z,47.50
2018-07-19T00:39:34.070Z,48.00
2018-07-19T00:42:02.743Z,48.30
2018-07-19T00:44:31.350Z,48.10
2018-07-19T00:46:59.954Z,47.90
2018-07-19T00:49:28.567Z,48.10
2018-07-19T00:51:57.198Z,48.40
2018-07-19T00:54:25.844Z,48.20
2018-07-19T00:56:54.500Z,48.10
2018-07-19T00:59:23.111Z,48.10
2018-07-19T01:01:51.706Z,48.30
2018-07-19T01:04:20.390Z,48.50
2018-07-19T01:06:49.005Z,48.50
2018-07-19T01:09:17.671Z,49.20
2018-07-19T01:11:46.338Z,48.60
2018-07-19T01:14:14.924Z,48.90
2018-07-19T01:16:43.500Z,49.10
2018-07-19T01:19:12.138Z,49.20
2018-07-19T01:21:40.754Z,49.20
2018-07-19T01:24:09.364Z,48.70
2018-07-19T01:26:38.730Z,48.20
2018-07-19T01:29:07.310Z,47.70
2018-07-19T01:31:36.002Z,48.10
2018-07-19T01:34:04.610Z,47.50
2018-07-19T01:36:33.213Z,48.00
2018-07-19T01:39:01.864Z,48.60
2018-07-19T01:41:43.588Z,48.30
2018-07-19T01:44:12.190Z,48.20
2018-07-19T01:46:40.804Z,48.60
2018-07-19T01:49:09.387Z,48.60
2018-07-19T01:51:37.995Z,48.30
2018-07-19T01:54:06.554Z,48.20
2018-07-19T01:56:35.233Z,48.30
2018-07-19T01:59:04.004Z,48.50
2018-07-19T02:01:32.631Z,48.30
2018-07-19T02:04:01.274Z,48.70
2018-07-19T02:06:29.878Z,48.50
2018-07-19T02:08:58.663Z,48.10
2018-07-19T02:11:27.318Z,48.20
2018-07-19T02:13:55.986Z,48.30
2018-07-19T02:16:24.560Z,48.50
2018-07-19T02:18:53.168Z,48.30
2018-07-19T02:21:21.692Z,48.60
2018-07-19T02:23:50.255Z,49.00
2018-07-19T02:26:18.848Z,49.20
2018-07-19T02:28:47.412Z,49.70
2018-07-19T02:31:16.165Z,48.60
2018-07-19T02:33:44.806Z,48.50
2018-07-19T02:36:13.406Z,48.70
2018-07-19T02:38:42.035Z,49.30
2018-07-19T02:41:10.658Z,49.00
2018-07-19T02:43:39.314Z,49.50
2018-07-19T02:46:07.940Z,49.40
2018-07-19T02:48:36.607Z,49.50
2018-07-19T02:51:05.402Z,49.60
2018-07-19T02:53:34.091Z,49.50
2018-07-19T02:56:02.956Z,50.00
2018-07-19T02:58:31.627Z,50.30
2018-07-19T03:01:00.271Z,50.30
2018-07-19T03:03:28.876Z,50.40
2018-07-19T03:05:57.441Z,50.40
2018-07-19T03:08:26.170Z,50.30
2018-07-19T03:10:54.740Z,50.50
2018-07-19T03:13:23.298Z,51.10
2018-07-19T03:15:51.866Z,51.10
2018-07-19T03:18:20.439Z,51.20
2018-07-19T03:20:48.994Z,51.50
2018-07-19T03:23:17.595Z,51.60
2018-07-19T03:25:46.194Z,50.90
2018-07-19T03:28:14.838Z,50.20
2018-07-19T03:30:43.435Z,49.10
2018-07-19T03:33:12.774Z,48.60
2018-07-19T03:35:41.334Z,48.70
2018-07-19T03:38:09.902Z,48.70
2018-07-19T03:40:38.491Z,49.40
2018-07-19T03:43:07.106Z,49.70
2018-07-19T03:45:35.703Z,49.80
2018-07-19T03:48:04.283Z,49.80
2018-07-19T03:50:32.976Z,49.80
2018-07-19T03:53:01.607Z,49.80
2018-07-19T03:55:30.276Z,49.70
2018-07-19T03:57:58.862Z,49.70
2018-07-19T04:00:27.448Z,49.70
2018-07-19T04:02:56.067Z,49.60
2018-07-19T04:05:24.638Z,50.20
2018-07-19T04:07:53.232Z,50.90
2018-07-19T04:10:21.827Z,50.50
2018-07-19T04:12:50.388Z,50.40
2018-07-19T04:15:18.978Z,50.50
2018-07-19T04:17:52.158Z,49.80
2018-07-19T04:20:20.762Z,49.80
2018-07-19T04:22:49.416Z,50.00
2018-07-19T04:25:18.023Z,49.10
2018-07-19T04:27:46.592Z,49.10
2018-07-19T04:30:15.189Z,49.00
2018-07-19T04:32:43.854Z,49.40
2018-07-19T04:35:12.462Z,47.60
2018-07-19T04:37:41.090Z,47.60
2018-07-19T04:40:09.664Z,48.60
2018-07-19T04:42:38.230Z,48.00
2018-07-19T04:45:07.010Z,48.20
2018-07-19T04:47:35.641Z,48.20
2018-07-19T04:50:04.378Z,48.60
2018-07-19T04:52:34.654Z,48.30
2018-07-19T04:55:03.346Z,47.50
2018-07-19T04:57:32.012Z,47.50
2018-07-19T05:00:00.661Z,47.50
2018-07-19T05:02:29.258Z,47.20
2018-07-19T05:04:57.850Z,46.60
2018-07-19T05:07:26.449Z,45.10
2018-07-19T05:09:55.041Z,45.70
2018-07-19T05:12:23.666Z,44.70
2018-07-19T05:14:52.361Z,44.60
2018-07-19T05:17:20.944Z,44.60
2018-07-19T05:19:50.449Z,44.20
2018-07-19T05:22:19.064Z,43.90
2018-07-19T05:24:47.727Z,43.60
2018-07-19T05:27:16.372Z,41.50
2018-07-19T05:29:45.052Z,40.30
2018-07-19T05:32:13.884Z,39.20
2018-07-19T05:34:42.516Z,36.60
2018-07-19T05:37:11.110Z,36.40
2018-07-19T05:39:39.746Z,36.80
2018-07-19T05:42:08.926Z,37.10
2018-07-19T05:44:37.484Z,36.70
2018-07-19T05:47:06.104Z,34.30
2018-07-19T05:49:34.726Z,34.80
2018-07-19T05:52:03.374Z,32.90
2018-07-19T05:54:31.964Z,31.30
2018-07-19T05:57:00.619Z,31.60
2018-07-19T05:59:29.262Z,32.60
2018-07-19T06:01:57.884Z,31.20
2018-07-19T06:04:26.539Z,30.50
2018-07-19T06:06:55.202Z,30.50
2018-07-19T06:09:23.859Z,29.70
2018-07-19T06:11:52.485Z,29.30
2018-07-19T06:14:21.310Z,28.20
2018-07-19T06:16:49.962Z,29.00
2018-07-19T06:19:18.543Z,30.20
2018-07-19T06:21:47.199Z,31.40
2018-07-19T06:24:15.819Z,29.50
2018-07-19T06:26:44.401Z,28.20
2018-07-19T06:29:13.025Z,26.80
2018-07-19T06:31:41.678Z,25.80
2018-07-19T06:34:10.281Z,25.20
2018-07-19T06:36:38.888Z,24.30
2018-07-19T06:39:08.308Z,24.50
2018-07-19T06:41:36.913Z,25.60
2018-07-19T06:44:05.712Z,25.60
2018-07-19T06:46:34.346Z,27.10
2018-07-19T06:49:02.900Z,27.20
2018-07-19T06:51:31.623Z,26.70
2018-07-19T06:54:00.384Z,26.10
2018-07-19T06:56:29.000Z,27.30
2018-07-19T06:58:57.620Z,26.40
2018-07-19T07:01:26.417Z,24.40
2018-07-19T07:03:55.050Z,23.30
2018-07-19T07:06:23.626Z,22.90
2018-07-19T07:08:52.263Z,22.80
2018-07-19T07:11:20.898Z,21.70
2018-07-19T07:13:49.527Z,22.00
2018-07-19T07:16:18.126Z,22.60
2018-07-19T07:18:46.734Z,23.40
2018-07-19T07:21:15.356Z,23.40
2018-07-19T07:23:43.910Z,22.80
2018-07-19T07:26:12.550Z,22.50
2018-07-19T07:28:44.160Z,22.10
2018-07-19T07:31:12.810Z,21.10
2018-07-19T07:33:41.418Z,19.90
2018-07-19T07:36:10.062Z,19.70
2018-07-19T07:38:38.679Z,19.60
2018-07-19T07:41:07.317Z,20.60
2018-07-19T07:43:35.949Z,22.40
2018-07-19T07:46:04.569Z,23.10
2018-07-19T07:48:33.172Z,22.60
2018-07-19T07:51:01.759Z,21.20
2018-07-19T07:53:30.388Z,20.50
2018-07-19T07:55:59.041Z,20.80
2018-07-19T07:58:27.608Z,20.90
2018-07-19T08:00:56.208Z,19.60
2018-07-19T08:03:24.768Z,19.00
2018-07-19T08:05:53.400Z,19.30
2018-07-19T08:08:22.010Z,19.10
2018-07-19T08:10:50.599Z,18.90
2018-07-19T08:13:19.182Z,19.10
2018-07-19T08:15:47.850Z,18.90
2018-07-19T08:18:16.419Z,19.60
2018-07-19T08:20:45.077Z,20.20
2018-07-19T08:23:13.682Z,20.10
2018-07-19T08:25:42.298Z,20.00
2018-07-19T08:28:10.954Z,20.50
2018-07-19T08:30:39.530Z,20.00
2018-07-19T08:33:08.142Z,20.00
2018-07-19T08:35:36.776Z,19.10
2018-07-19T08:38:05.791Z,18.60
2018-07-19T08:40:34.399Z,18.00
2018-07-19T08:43:03.014Z,17.60
2018-07-19T08:45:31.638Z,17.20
2018-07-19T08:48:00.283Z,17.00
2018-07-19T08:50:28.980Z,16.70
2018-07-19T08:52:57.651Z,16.50
2018-07-19T08:55:26.545Z,17.00
2018-07-19T08:57:55.337Z,16.80
2018-07-19T09:00:24.039Z,17.00
2018-07-19T09:02:52.651Z,18.00
2018-07-19T09:05:21.288Z,18.10
2018-07-19T09:07:49.876Z,17.80
2018-07-19T09:10:18.724Z,19.00
2018-07-19T09:12:47.375Z,18.20
2018-07-19T09:15:16.121Z,17.50
2018-07-19T09:17:44.788Z,18.80
2018-07-19T09:20:13.529Z,19.00
2018-07-19T09:22:42.178Z,18.30
2018-07-19T09:25:10.782Z,17.20
2018-07-19T09:27:39.393Z,17.90
2018-07-19T09:30:08.056Z,17.30
2018-07-19T09:32:36.773Z,16.90
2018-07-19T09:35:05.620Z,17.00
2018-07-19T09:37:34.336Z,16.10
2018-07-19T09:40:02.864Z,16.80
2018-07-19T09:42:31.438Z,15.70
2018-07-19T09:44:59.995Z,15.70
2018-07-19T09:47:28.534Z,15.90
2018-07-19T09:49:57.081Z,15.30
2018-07-19T09:52:25.622Z,16.20
2018-07-19T09:55:01.699Z,16.40
2018-07-19T09:57:31.016Z,16.10
2018-07-19T09:59:59.653Z,15.30
2018-07-19T10:02:28.220Z,17.20
2018-07-19T10:04:56.744Z,17.00
2018-07-19T10:07:25.294Z,16.90
2018-07-19T10:09:53.899Z,17.70
2018-07-19T10:12:22.432Z,17.90
2018-07-19T10:14:50.966Z,17.70
2018-07-19T10:17:19.499Z,17.60
2018-07-19T10:19:48.082Z,17.60
2018-07-19T10:22:16.690Z,15.70
2018-07-19T10:24:45.277Z,15.90
2018-07-19T10:27:13.858Z,15.40
2018-07-19T10:29:42.491Z,14.90
2018-07-19T10:32:11.207Z,14.60
2018-07-19T10:34:39.668Z,14.80
2018-07-19T10:37:08.330Z,16.00
2018-07-19T10:39:36.915Z,15.50
2018-07-19T10:42:05.669Z,15.50
2018-07-19T10:44:34.278Z,14.70
2018-07-19T10:47:02.854Z,15.10
2018-07-19T10:49:32.440Z,13.80
2018-07-19T10:52:01.027Z,14.50
2018-07-19T10:54:29.582Z,15.40
2018-07-19T10:56:58.091Z,15.00
2018-07-19T10:59:26.602Z,15.20
2018-07-19T11:01:55.192Z,15.20
2018-07-19T11:04:23.734Z,15.10
2018-07-19T11:06:52.268Z,15.50
2018-07-19T11:09:20.852Z,15.10
2018-07-19T11:11:49.402Z,14.30
2018-07-19T11:14:17.938Z,13.80
2018-07-19T11:16:46.470Z,13.60
2018-07-19T11:19:15.062Z,14.20
2018-07-19T11:21:43.634Z,13.80
2018-07-19T11:24:12.287Z,15.40
2018-07-19T11:26:41.062Z,14.80
2018-07-19T11:29:09.713Z,14.90
2018-07-19T11:31:38.274Z,15.40
2018-07-19T11:34:06.881Z,14.20
2018-07-19T11:36:35.594Z,14.90
2018-07-19T11:39:06.155Z,16.00
2018-07-19T11:41:35.163Z,14.90
2018-07-19T11:44:03.694Z,15.30
2018-07-19T11:46:32.256Z,13.30
2018-07-19T11:49:00.787Z,12.60
2018-07-19T11:51:29.354Z,13.40
2018-07-19T11:53:57.879Z,14.20
2018-07-19T11:56:26.483Z,12.60
2018-07-19T11:58:55.048Z,12.70
2018-07-19T12:01:23.618Z,12.00
2018-07-19T12:03:52.253Z,12.00
2018-07-19T12:06:20.863Z,12.40
2018-07-19T12:08:49.446Z,11.80
2018-07-19T12:11:18.319Z,12.30
2018-07-19T12:13:47.042Z,12.10
2018-07-19T12:16:15.675Z,12.90
2018-07-19T12:18:45.220Z,12.80
2018-07-19T12:21:13.827Z,12.60
2018-07-19T12:23:42.594Z,12.90
2018-07-19T12:26:11.127Z,12.20
2018-07-19T12:28:39.696Z,11.00
2018-07-19T12:31:08.336Z,11.20
2018-07-19T12:33:36.918Z,11.50
2018-07-19T12:36:05.575Z,12.00
2018-07-19T12:38:34.208Z,12.00
2018-07-19T12:41:02.745Z,12.20
2018-07-19T12:43:31.344Z,12.90
2018-07-19T12:45:59.958Z,12.60
2018-07-19T12:48:28.542Z,12.70
2018-07-19T12:50:57.122Z,12.20
2018-07-19T12:53:25.675Z,13.40
2018-07-19T12:55:54.373Z,13.40
2018-07-19T12:58:22.981Z,13.50
2018-07-19T13:00:51.532Z,14.60
2018-07-19T13:03:20.079Z,15.90
2018-07-19T13:05:48.591Z,17.50
2018-07-19T13:08:17.115Z,17.40
2018-07-19T13:10:45.630Z,18.40
2018-07-19T13:13:14.265Z,19.00
2018-07-19T13:15:57.621Z,19.60
2018-07-19T13:18:26.184Z,17.90
2018-07-19T13:20:54.851Z,18.30
2018-07-19T13:23:23.583Z,18.70
2018-07-19T13:25:52.451Z,19.60
2018-07-19T13:28:21.153Z,20.40
2018-07-19T13:30:49.753Z,20.50
2018-07-19T13:33:18.353Z,20.60
2018-07-19T13:35:46.858Z,20.00
2018-07-19T13:38:15.576Z,19.90
2018-07-19T13:40:44.143Z,19.90
2018-07-19T13:43:15.446Z,19.40
2018-07-19T13:45:43.956Z,19.80
2018-07-19T13:48:12.607Z,19.60
2018-07-19T13:50:41.196Z,19.50
2018-07-19T13:53:36.434Z,18.20
2018-07-19T13:56:06.117Z,19.10
2018-07-19T13:58:35.362Z,19.40
2018-07-19T14:01:04.144Z,19.50
2018-07-19T14:03:32.924Z,19.10
2018-07-19T14:06:01.915Z,19.60
2018-07-19T14:08:30.500Z,19.80
2018-07-19T14:10:59.042Z,19.50
2018-07-19T14:13:27.610Z,19.20
2018-07-19T14:15:56.305Z,20.60
2018-07-19T14:18:24.874Z,19.90
2018-07-19T14:20:53.461Z,19.70
2018-07-19T14:23:21.985Z,19.50
2018-07-19T14:25:50.501Z,19.50
2018-07-19T14:28:19.074Z,19.50
2018-07-19T14:30:47.806Z,19.50
2018-07-19T14:33:16.347Z,19.40
2018-07-19T14:35:44.902Z,19.70
2018-07-19T14:38:13.479Z,19.80
2018-07-19T14:40:42.090Z,19.80
2018-07-19T14:43:10.623Z,19.50
2018-07-19T14:45:39.165Z,19.00
2018-07-19T14:48:07.723Z,18.80
2018-07-19T14:50:36.295Z,19.00
2018-07-19T14:53:05.111Z,18.90
2018-07-19T14:55:33.639Z,19.30
2018-07-19T14:58:02.131Z,19.80
2018-07-19T15:00:30.671Z,19.80
2018-07-19T15:02:59.208Z,20.40
2018-07-19T15:05:27.767Z,19.60
2018-07-19T15:07:56.432Z,19.30
2018-07-19T15:10:25.066Z,19.30
2018-07-19T15:12:53.649Z,19.70
2018-07-19T15:15:22.230Z,19.70
2018-07-19T15:17:50.775Z,19.70
2018-07-19T15:20:19.433Z,20.10
2018-07-19T15:22:47.962Z,19.80
2018-07-19T15:25:16.518Z,19.70
2018-07-19T15:27:45.187Z,19.60
2018-07-19T15:30:13.760Z,19.20
2018-07-19T15:32:42.290Z,19.60
2018-07-19T15:35:10.873Z,19.70
2018-07-19T15:37:39.394Z,19.70
2018-07-19T15:40:08.072Z,19.10
2018-07-19T15:42:36.659Z,19.50
2018-07-19T15:45:06.003Z,19.60
2018-07-19T15:47:34.733Z,20.10
2018-07-19T15:50:03.353Z,20.00
2018-07-19T15:52:31.921Z,19.90
2018-07-19T15:55:00.527Z,20.10
2018-07-19T15:57:29.080Z,20.10
2018-07-19T15:59:57.624Z,20.60
2018-07-19T16:02:26.270Z,20.50
2018-07-19T16:04:54.774Z,20.40
2018-07-19T16:07:23.326Z,20.70
2018-07-19T16:09:51.931Z,21.10
2018-07-19T16:12:20.446Z,21.00
2018-07-19T16:14:48.983Z,20.50
2018-07-19T16:17:17.501Z,20.90
2018-07-19T16:19:46.023Z,20.90
2018-07-19T16:22:14.640Z,21.10
2018-07-19T16:24:43.222Z,20.60
2018-07-19T16:27:11.765Z,20.90
2018-07-19T16:29:40.253Z,21.70
2018-07-19T16:32:08.798Z,21.60
2018-07-19T16:34:37.303Z,21.60
2018-07-19T16:37:05.921Z,22.30
2018-07-19T16:39:34.447Z,21.90
2018-07-19T16:42:02.961Z,22.70
2018-07-19T16:44:31.484Z,22.30
2018-07-19T16:47:00.050Z,22.40
2018-07-19T16:49:28.546Z,21.70
2018-07-19T16:51:57.097Z,21.70
2018-07-19T16:54:25.672Z,22.00
2018-07-19T16:56:54.209Z,22.20
2018-07-19T16:59:22.750Z,21.90
2018-07-19T17:01:51.301Z,22.20
2018-07-19T17:04:19.843Z,22.20
2018-07-19T17:06:48.484Z,22.10
2018-07-19T17:09:17.095Z,22.30
2018-07-19T17:11:45.810Z,22.40
2018-07-19T17:14:14.411Z,22.80
2018-07-19T17:16:42.995Z,22.30
2018-07-19T17:19:11.615Z,22.60
2018-07-19T17:21:40.219Z,22.70
2018-07-19T17:24:08.857Z,22.80
2018-07-19T17:26:37.501Z,22.30
2018-07-19T17:29:06.150Z,22.70
2018-07-19T17:31:34.816Z,23.00
2018-07-19T17:34:03.493Z,23.10
2018-07-19T17:36:32.077Z,23.40
2018-07-19T17:39:00.779Z,23.10
2018-07-19T17:41:29.411Z,23.30
2018-07-19T17:43:58.057Z,23.50
2018-07-19T17:46:26.645Z,23.70
2018-07-19T17:48:55.247Z,23.70
2018-07-19T17:51:23.842Z,24.00
2018-07-19T17:53:52.405Z,23.60
2018-07-19T17:56:21.023Z,23.70
2018-07-19T17:58:49.659Z,23.80
2018-07-19T18:01:18.239Z,24.00
2018-07-19T18:03:46.903Z,23.90
2018-07-19T18:06:15.498Z,24.10
2018-07-19T18:08:44.102Z,24.20
2018-07-19T18:11:12.711Z,24.30
2018-07-19T18:13:41.290Z,24.30
2018-07-19T18:16:09.879Z,24.40
2018-07-19T18:18:38.531Z,24.50
2018-07-19T18:21:07.165Z,24.70
2018-07-19T18:23:35.729Z,24.80
2018-07-19T18:26:04.359Z,25.00
2018-07-19T18:28:32.967Z,25.10
2018-07-19T18:31:01.539Z,25.10
2018-07-19T18:33:30.195Z,25.40
2018-07-19T18:35:58.858Z,25.40
2018-07-19T18:38:27.469Z,25.60
2018-07-19T18:40:56.157Z,25.70
2018-07-19T18:43:24.790Z,25.60
2018-07-19T18:45:53.371Z,25.70
2018-07-19T18:48:22.000Z,25.90
2018-07-19T18:50:50.594Z,26.00
2018-07-19T18:53:19.259Z,26.20
2018-07-19T18:55:47.898Z,26.20
2018-07-19T18:58:16.441Z,26.20
2018-07-19T19:00:45.857Z,26.20
2018-07-19T19:03:14.587Z,26.30
2018-07-19T19:05:43.202Z,26.30
2018-07-19T19:08:12.353Z,26.40
2018-07-19T19:10:40.977Z,26.70
2018-07-19T19:13:09.623Z,26.90
2018-07-19T19:15:38.211Z,26.90
2018-07-19T19:18:06.851Z,27.20
2018-07-19T19:20:35.475Z,27.40
2018-07-19T19:23:04.302Z,27.40
2018-07-19T19:25:33.021Z,27.50
2018-07-19T19:28:01.699Z,27.60
2018-07-19T19:30:30.455Z,27.70
2018-07-19T19:32:59.094Z,27.70
2018-07-19T19:35:27.895Z,28.20
2018-07-19T19:37:56.618Z,28.20
2018-07-19T19:40:25.319Z,28.90
2018-07-19T19:42:53.966Z,30.10
2018-07-19T19:45:22.714Z,30.20
2018-07-19T19:47:51.379Z,31.60
2018-07-19T19:50:20.075Z,32.30
2018-07-19T19:52:48.756Z,32.40
2018-07-19T19:55:17.379Z,32.80
2018-07-19T19:57:46.056Z,33.30
2018-07-19T20:00:14.677Z,33.10
2018-07-19T20:02:43.371Z,33.00
2018-07-19T20:05:12.113Z,33.20
2018-07-19T20:07:40.735Z,33.30
2018-07-19T20:10:09.399Z,33.50
2018-07-19T20:12:38.168Z,33.80
2018-07-19T20:15:06.924Z,33.60
2018-07-19T20:17:35.624Z,34.50
2018-07-19T20:20:04.995Z,33.90
2018-07-19T20:22:33.683Z,33.90
2018-07-19T20:25:02.337Z,34.60
2018-07-19T20:27:30.969Z,34.70
2018-07-19T20:29:59.661Z,35.10
2018-07-19T20:32:28.725Z,34.70
2018-07-19T20:34:57.590Z,35.10
2018-07-19T20:37:26.230Z,35.90
2018-07-19T20:39:54.878Z,35.70
2018-07-19T20:42:23.511Z,35.80
2018-07-19T20:44:52.137Z,35.90
2018-07-19T20:47:20.750Z,36.30
2018-07-19T20:49:49.466Z,36.30
2018-07-19T20:52:18.101Z,36.60
2018-07-19T20:54:46.787Z,37.00
2018-07-19T20:57:15.330Z,37.20
2018-07-19T20:59:44.063Z,37.50
2018-07-19T21:02:12.689Z,38.00
2018-07-19T21:04:41.282Z,38.00
2018-07-19T21:07:09.959Z,38.30
2018-07-19T21:09:38.573Z,38.00
2018-07-19T21:12:07.243Z,37.50
2018-07-19T21:14:36.019Z,37.20
2018-07-19T21:17:04.647Z,38.10
2018-07-19T21:19:33.275Z,38.60
2018-07-19T21:22:01.929Z,38.50
2018-07-19T21:24:30.559Z,38.20
2018-07-19T21:26:59.200Z,38.20
2018-07-19T21:29:27.801Z,38.00
2018-07-19T21:31:56.424Z,37.40
2018-07-19T21:34:25.016Z,37.90
2018-07-19T21:36:53.804Z,37.70
2018-07-19T21:39:22.420Z,37.80
2018-07-19T21:41:51.051Z,38.20
2018-07-19T21:44:19.693Z,38.40
2018-07-19T21:46:48.351Z,38.60
2018-07-19T21:49:16.913Z,38.70
2018-07-19T21:51:47.342Z,39.00
2018-07-19T21:54:15.937Z,39.00
2018-07-19T21:56:47.351Z,38.90
2018-07-19T21:59:16.196Z,39.10
2018-07-19T22:01:45.717Z,39.20
2018-07-19T22:04:16.223Z,38.80
2018-07-19T22:06:45.099Z,38.80
2018-07-19T22:09:14.111Z,38.60
2018-07-19T22:11:42.715Z,38.60
2018-07-19T22:14:11.347Z,38.50
2018-07-19T22:16:40.727Z,38.20
2018-07-19T22:19:09.472Z,38.60
2018-07-19T22:21:38.071Z,38.60
2018-07-19T22:24:06.701Z,39.00
2018-07-19T22:26:35.290Z,39.20
2018-07-19T22:29:03.960Z,39.20
2018-07-19T22:31:32.603Z,39.00
2018-07-19T22:34:01.203Z,39.30
2018-07-19T22:36:29.871Z,39.50
2018-07-19T22:38:59.476Z,39.40
2018-07-19T22:41:28.090Z,39.00
2018-07-19T22:43:56.718Z,39.20
2018-07-19T22:46:25.377Z,39.40
2018-07-19T22:48:56.758Z,39.50
2018-07-19T22:51:25.604Z,39.80
2018-07-19T22:53:54.182Z,40.00
2018-07-19T22:56:22.787Z,40.00
2018-07-19T22:58:51.388Z,40.40
2018-07-19T23:01:20.034Z,40.80
2018-07-19T23:03:48.778Z,40.50
2018-07-19T23:06:17.449Z,40.00
2018-07-19T23:08:46.475Z,39.70
2018-07-19T23:11:15.135Z,40.70
2018-07-19T23:13:44.033Z,40.20
2018-07-19T23:16:12.684Z,40.30
2018-07-19T23:18:41.307Z,40.60
2018-07-19T23:21:09.883Z,40.50
2018-07-19T23:23:38.446Z,40.80
2018-07-19T23:26:07.089Z,41.20
2018-07-19T23:28:35.733Z,41.60
2018-07-19T23:31:04.567Z,41.90
2018-07-19T23:33:33.235Z,41.80
2018-07-19T23:36:04.545Z,41.80
2018-07-19T23:38:37.069Z,42.50
2018-07-19T23:41:09.972Z,42.30
2018-07-19T23:43:40.738Z,42.30
2018-07-19T23:46:18.856Z,42.60
2018-07-19T23:48:47.888Z,42.80
2018-07-19T23:51:16.523Z,43.10
2018-07-19T23:53:45.203Z,42.90
2018-07-19T23:56:13.844Z,43.00
2018-07-19T23:58:42.471Z,43.20
